sensor_id;sensor_type;location;lat;lon;timestamp;pressure;altitude;pressure_sealevel;temperature;humidity
39075;BME280;24826;52.070;20.970;2022-11-20T00:02:19;61635.28;;;-147.04;64.42
39075;BME280;24826;52.070;20.970;2022-11-20T00:05:03;61669.09;;;-147.04;63.11
39075;BME280;24826;52.070;20.970;2022-11-20T00:07:47;61659.16;;;-147.04;63.95
39075;BME280;24826;52.070;20.970;2022-11-20T00:10:32;61669.09;;;-147.04;64.43
39075;BME280;24826;52.070;20.970;2022-11-20T00:13:16;61647.22;;;-147.04;64.69
39075;BME280;24826;52.070;20.970;2022-11-20T00:16:02;61694.94;;;-147.04;64.63
39075;BME280;24826;52.070;20.970;2022-11-20T00:18:48;61708.88;;;-147.04;63.66
39075;BME280;24826;52.070;20.970;2022-11-20T00:21:32;61675.06;;;-147.04;63.40
39075;BME280;24826;52.070;20.970;2022-11-20T00:24:17;61639.25;;;-147.04;63.21
39075;BME280;24826;52.070;20.970;2022-11-20T00:27:01;61637.28;;;-147.04;63.66
39075;BME280;24826;52.070;20.970;2022-11-20T00:29:45;61643.25;;;-147.04;64.16
39075;BME280;24826;52.070;20.970;2022-11-20T00:32:30;61675.06;;;-147.04;64.71
39075;BME280;24826;52.070;20.970;2022-11-20T00:35:15;61657.16;;;-147.04;64.36
39075;BME280;24826;52.070;20.970;2022-11-20T00:37:59;61681.03;;;-147.04;64.72
39075;BME280;24826;52.070;20.970;2022-11-20T00:40:44;61675.06;;;-147.04;64.87
39075;BME280;24826;52.070;20.970;2022-11-20T00:43:28;61655.16;;;-147.04;65.65
39075;BME280;24826;52.070;20.970;2022-11-20T00:46:18;61742.66;;;-147.04;64.61
39075;BME280;24826;52.070;20.970;2022-11-20T00:49:03;61663.13;;;-147.04;64.96
39075;BME280;24826;52.070;20.970;2022-11-20T00:51:47;61655.16;;;-147.04;64.74
39075;BME280;24826;52.070;20.970;2022-11-20T00:54:31;61671.09;;;-147.04;63.92
39075;BME280;24826;52.070;20.970;2022-11-20T00:57:16;61653.19;;;-147.04;63.85
39075;BME280;24826;52.070;20.970;2022-11-20T01:00:00;61649.22;;;-147.04;64.74
39075;BME280;24826;52.070;20.970;2022-11-20T01:02:45;61643.25;;;-147.04;64.43
39075;BME280;24826;52.070;20.970;2022-11-20T01:05:34;61659.16;;;-147.04;64.12
39075;BME280;24826;52.070;20.970;2022-11-20T01:08:19;61659.16;;;-147.04;64.42
39075;BME280;24826;52.070;20.970;2022-11-20T01:11:09;61635.28;;;-147.04;64.00
39075;BME280;24826;52.070;20.970;2022-11-20T01:13:55;61659.16;;;-147.04;63.57
39075;BME280;24826;52.070;20.970;2022-11-20T01:16:45;61681.03;;;-147.04;65.36
39075;BME280;24826;52.070;20.970;2022-11-20T01:19:30;61671.09;;;-147.04;65.88
39075;BME280;24826;52.070;20.970;2022-11-20T01:22:15;61671.09;;;-147.04;66.35
39075;BME280;24826;52.070;20.970;2022-11-20T01:24:59;61694.94;;;-147.04;66.70
39075;BME280;24826;52.070;20.970;2022-11-20T01:27:43;61692.97;;;-147.04;66.40
39075;BME280;24826;52.070;20.970;2022-11-20T01:30:28;61651.19;;;-147.04;65.73
39075;BME280;24826;52.070;20.970;2022-11-20T01:33:12;61637.28;;;-147.04;65.08
39075;BME280;24826;52.070;20.970;2022-11-20T01:36:04;61643.25;;;-147.04;64.88
39075;BME280;24826;52.070;20.970;2022-11-20T01:38:53;61629.31;;;-147.04;64.34
39075;BME280;24826;52.070;20.970;2022-11-20T01:41:38;61631.31;;;-147.04;64.49
39075;BME280;24826;52.070;20.970;2022-11-20T01:47:40;61613.41;;;-147.04;63.10
39075;BME280;24826;52.070;20.970;2022-11-20T01:50:28;61621.38;;;-147.04;62.83
39075;BME280;24826;52.070;20.970;2022-11-20T01:53:20;61645.22;;;-147.04;63.45
39075;BME280;24826;52.070;20.970;2022-11-20T01:56:09;61623.34;;;-147.04;64.09
39075;BME280;24826;52.070;20.970;2022-11-20T01:58:58;61615.41;;;-147.04;64.03
39075;BME280;24826;52.070;20.970;2022-11-20T02:01:45;61653.19;;;-147.04;64.18
39075;BME280;24826;52.070;20.970;2022-11-20T02:04:30;61603.47;;;-147.04;63.16
39075;BME280;24826;52.070;20.970;2022-11-20T02:07:15;61637.28;;;-147.04;63.26
39075;BME280;24826;52.070;20.970;2022-11-20T02:10:00;61627.34;;;-147.04;63.97
39075;BME280;24826;52.070;20.970;2022-11-20T02:12:46;61663.13;;;-147.04;63.92
39075;BME280;24826;52.070;20.970;2022-11-20T02:15:50;61609.44;;;-147.04;63.83
39075;BME280;24826;52.070;20.970;2022-11-20T02:18:34;61583.59;;;-147.04;63.58
39075;BME280;24826;52.070;20.970;2022-11-20T02:24:09;61619.38;;;-147.04;64.66
39075;BME280;24826;52.070;20.970;2022-11-20T02:27:02;61619.38;;;-147.04;64.66
39075;BME280;24826;52.070;20.970;2022-11-20T02:30:20;61631.31;;;-147.04;65.18
39075;BME280;24826;52.070;20.970;2022-11-20T02:32:58;61651.19;;;-147.04;66.50
39075;BME280;24826;52.070;20.970;2022-11-20T02:35:44;61635.28;;;-147.04;67.31
39075;BME280;24826;52.070;20.970;2022-11-20T02:38:29;61621.38;;;-147.04;67.09
39075;BME280;24826;52.070;20.970;2022-11-20T02:41:13;61687.00;;;-147.04;68.06
39075;BME280;24826;52.070;20.970;2022-11-20T02:43:57;61690.97;;;-147.04;68.54
39075;BME280;24826;52.070;20.970;2022-11-20T02:46:42;61687.00;;;-147.04;69.89
39075;BME280;24826;52.070;20.970;2022-11-20T02:49:26;61619.38;;;-147.04;70.33
39075;BME280;24826;52.070;20.970;2022-11-20T02:52:10;61641.25;;;-147.04;70.66
39075;BME280;24826;52.070;20.970;2022-11-20T02:54:55;61669.09;;;-147.04;71.00
39075;BME280;24826;52.070;20.970;2022-11-20T02:57:40;61671.09;;;-147.04;71.34
39075;BME280;24826;52.070;20.970;2022-11-20T03:00:24;61673.06;;;-147.04;71.52
39075;BME280;24826;52.070;20.970;2022-11-20T03:03:08;61667.09;;;-147.04;71.34
39075;BME280;24826;52.070;20.970;2022-11-20T03:05:53;61679.03;;;-147.04;71.21
39075;BME280;24826;52.070;20.970;2022-11-20T03:08:37;61655.16;;;-147.04;70.50
39075;BME280;24826;52.070;20.970;2022-11-20T03:11:21;61774.50;;;-147.04;70.58
39075;BME280;24826;52.070;20.970;2022-11-20T03:14:05;61653.19;;;-147.04;69.68
39075;BME280;24826;52.070;20.970;2022-11-20T03:16:50;61669.09;;;-147.04;68.84
39075;BME280;24826;52.070;20.970;2022-11-20T03:19:34;61639.25;;;-147.04;68.46
39075;BME280;24826;52.070;20.970;2022-11-20T03:22:18;61667.09;;;-147.04;67.54
39075;BME280;24826;52.070;20.970;2022-11-20T03:25:03;61758.59;;;-147.04;67.66
39075;BME280;24826;52.070;20.970;2022-11-20T03:27:47;61639.25;;;-147.04;66.53
39075;BME280;24826;52.070;20.970;2022-11-20T03:30:32;61641.25;;;-147.04;67.23
39075;BME280;24826;52.070;20.970;2022-11-20T03:33:16;61647.22;;;-147.04;67.28
39075;BME280;24826;52.070;20.970;2022-11-20T03:36:05;61635.28;;;-147.04;67.38
39075;BME280;24826;52.070;20.970;2022-11-20T03:38:50;61623.34;;;-147.04;67.20
39075;BME280;24826;52.070;20.970;2022-11-20T03:41:39;61623.34;;;-147.04;67.18
39075;BME280;24826;52.070;20.970;2022-11-20T03:44:24;61637.28;;;-147.04;68.04
39075;BME280;24826;52.070;20.970;2022-11-20T03:47:08;61631.31;;;-147.04;67.12
39075;BME280;24826;52.070;20.970;2022-11-20T03:49:52;61633.31;;;-147.04;66.82
39075;BME280;24826;52.070;20.970;2022-11-20T03:52:36;61651.19;;;-147.04;65.76
39075;BME280;24826;52.070;20.970;2022-11-20T03:55:21;61623.34;;;-147.04;65.61
39075;BME280;24826;52.070;20.970;2022-11-20T03:58:05;61639.25;;;-147.04;64.89
39075;BME280;24826;52.070;20.970;2022-11-20T04:00:50;61623.34;;;-147.04;65.07
39075;BME280;24826;52.070;20.970;2022-11-20T04:03:35;61661.13;;;-147.04;65.02
39075;BME280;24826;52.070;20.970;2022-11-20T04:06:33;61655.16;;;-147.04;65.16
39075;BME280;24826;52.070;20.970;2022-11-20T04:09:18;61659.16;;;-147.04;66.13
39075;BME280;24826;52.070;20.970;2022-11-20T04:12:02;61639.25;;;-147.04;65.26
39075;BME280;24826;52.070;20.970;2022-11-20T04:14:46;61623.34;;;-147.04;66.36
39075;BME280;24826;52.070;20.970;2022-11-20T04:17:31;61671.09;;;-147.04;67.25
39075;BME280;24826;52.070;20.970;2022-11-20T04:20:15;61657.16;;;-147.04;67.21
39075;BME280;24826;52.070;20.970;2022-11-20T04:22:59;61639.25;;;-147.04;66.10
39075;BME280;24826;52.070;20.970;2022-11-20T04:25:44;61645.22;;;-147.04;66.44
39075;BME280;24826;52.070;20.970;2022-11-20T04:28:28;61651.19;;;-147.04;67.25
39075;BME280;24826;52.070;20.970;2022-11-20T04:31:20;61659.16;;;-147.04;66.85
39075;BME280;24826;52.070;20.970;2022-11-20T04:34:06;61645.22;;;-147.04;67.23
39075;BME280;24826;52.070;20.970;2022-11-20T04:36:51;61655.16;;;-147.04;66.51
39075;BME280;24826;52.070;20.970;2022-11-20T04:39:35;61651.19;;;-147.04;66.79
39075;BME280;24826;52.070;20.970;2022-11-20T04:42:19;61677.03;;;-147.04;67.21
39075;BME280;24826;52.070;20.970;2022-11-20T04:45:13;61877.91;;;-147.04;66.45
39075;BME280;24826;52.070;20.970;2022-11-20T04:47:57;61617.38;;;-147.04;66.40
39075;BME280;24826;52.070;20.970;2022-11-20T04:50:42;61667.09;;;-147.04;66.20
39075;BME280;24826;52.070;20.970;2022-11-20T04:53:26;61643.25;;;-147.04;65.42
39075;BME280;24826;52.070;20.970;2022-11-20T04:56:12;61675.06;;;-147.04;66.00
39075;BME280;24826;52.070;20.970;2022-11-20T04:59:00;61698.91;;;-147.04;69.11
39075;BME280;24826;52.070;20.970;2022-11-20T05:01:44;61665.13;;;-147.04;68.98
39075;BME280;24826;52.070;20.970;2022-11-20T05:04:28;61679.03;;;-147.04;69.39
39075;BME280;24826;52.070;20.970;2022-11-20T05:07:13;61681.03;;;-147.04;69.16
39075;BME280;24826;52.070;20.970;2022-11-20T05:09:58;61708.88;;;-147.04;70.12
39075;BME280;24826;52.070;20.970;2022-11-20T05:12:43;61653.19;;;-147.04;69.71
39075;BME280;24826;52.070;20.970;2022-11-20T05:15:27;61718.81;;;-147.04;70.38
39075;BME280;24826;52.070;20.970;2022-11-20T05:18:12;61671.09;;;-147.04;69.76
39075;BME280;24826;52.070;20.970;2022-11-20T05:20:58;61704.88;;;-147.04;70.09
39075;BME280;24826;52.070;20.970;2022-11-20T05:23:44;61740.69;;;-147.04;69.68
39075;BME280;24826;52.070;20.970;2022-11-20T05:26:28;61702.91;;;-147.04;70.33
39075;BME280;24826;52.070;20.970;2022-11-20T05:29:13;61708.88;;;-147.04;69.51
39075;BME280;24826;52.070;20.970;2022-11-20T05:31:57;61663.13;;;-147.04;68.61
39075;BME280;24826;52.070;20.970;2022-11-20T05:34:42;61698.91;;;-147.04;68.78
39075;BME280;24826;52.070;20.970;2022-11-20T05:37:27;61700.91;;;-147.04;69.33
39075;BME280;24826;52.070;20.970;2022-11-20T05:40:11;61706.88;;;-147.04;69.65
39075;BME280;24826;52.070;20.970;2022-11-20T05:42:56;61710.84;;;-147.04;69.49
39075;BME280;24826;52.070;20.970;2022-11-20T05:45:41;61806.31;;;-147.04;70.51
39075;BME280;24826;52.070;20.970;2022-11-20T05:48:25;61690.97;;;-147.04;71.09
39075;BME280;24826;52.070;20.970;2022-11-20T05:51:11;61728.75;;;-147.04;71.71
39075;BME280;24826;52.070;20.970;2022-11-20T05:53:56;61706.88;;;-147.04;72.36
39075;BME280;24826;52.070;20.970;2022-11-20T05:56:42;61905.75;;;-147.04;73.54
39075;BME280;24826;52.070;20.970;2022-11-20T05:59:26;61780.47;;;-147.04;74.28
39075;BME280;24826;52.070;20.970;2022-11-20T06:02:11;61774.50;;;-147.04;74.75
39075;BME280;24826;52.070;20.970;2022-11-20T06:04:55;61734.72;;;-147.04;75.06
39075;BME280;24826;52.070;20.970;2022-11-20T06:07:39;61945.50;;;-147.04;74.77
39075;BME280;24826;52.070;20.970;2022-11-20T06:10:23;61772.50;;;-147.04;75.64
39075;BME280;24826;52.070;20.970;2022-11-20T06:13:08;61778.47;;;-147.04;75.45
39075;BME280;24826;52.070;20.970;2022-11-20T06:15:52;61754.59;;;-147.04;75.90
39075;BME280;24826;52.070;20.970;2022-11-20T06:18:37;61750.63;;;-147.04;75.26
39075;BME280;24826;52.070;20.970;2022-11-20T06:21:22;61778.47;;;-147.04;75.56
39075;BME280;24826;52.070;20.970;2022-11-20T06:24:09;61766.53;;;-147.04;75.27
39075;BME280;24826;52.070;20.970;2022-11-20T06:26:52;61764.53;;;-147.04;74.59
39075;BME280;24826;52.070;20.970;2022-11-20T06:29:37;61762.56;;;-147.04;74.59
39075;BME280;24826;52.070;20.970;2022-11-20T06:32:21;61756.59;;;-147.04;75.05
39075;BME280;24826;52.070;20.970;2022-11-20T06:35:05;61732.72;;;-147.04;74.13
39075;BME280;24826;52.070;20.970;2022-11-20T06:37:50;61742.66;;;-147.04;72.84
39075;BME280;24826;52.070;20.970;2022-11-20T06:40:34;61730.75;;;-147.04;72.21
39075;BME280;24826;52.070;20.970;2022-11-20T06:43:19;61754.59;;;-147.04;72.05
39075;BME280;24826;52.070;20.970;2022-11-20T06:46:03;61770.50;;;-147.04;72.77
39075;BME280;24826;52.070;20.970;2022-11-20T06:48:48;61764.53;;;-147.04;73.00
39075;BME280;24826;52.070;20.970;2022-11-20T06:51:33;61734.72;;;-147.04;72.65
39075;BME280;24826;52.070;20.970;2022-11-20T06:54:17;61812.28;;;-147.04;72.41
39075;BME280;24826;52.070;20.970;2022-11-20T06:57:02;61738.69;;;-147.04;73.11
39075;BME280;24826;52.070;20.970;2022-11-20T06:59:46;61758.59;;;-147.04;73.43
39075;BME280;24826;52.070;20.970;2022-11-20T07:02:31;61760.56;;;-147.04;73.28
39075;BME280;24826;52.070;20.970;2022-11-20T07:05:15;61750.63;;;-147.04;73.66
39075;BME280;24826;52.070;20.970;2022-11-20T07:08:00;61776.47;;;-147.04;73.82
39075;BME280;24826;52.070;20.970;2022-11-20T07:10:44;61760.56;;;-147.04;72.51
39075;BME280;24826;52.070;20.970;2022-11-20T07:13:29;61738.69;;;-147.04;71.28
39075;BME280;24826;52.070;20.970;2022-11-20T07:16:14;61722.78;;;-147.04;70.81
39075;BME280;24826;52.070;20.970;2022-11-20T07:18:58;61834.16;;;-147.04;70.65
39075;BME280;24826;52.070;20.970;2022-11-20T07:21:43;61734.72;;;-147.04;71.28
39075;BME280;24826;52.070;20.970;2022-11-20T07:24:28;61710.84;;;-147.04;71.11
39075;BME280;24826;52.070;20.970;2022-11-20T07:27:12;61732.72;;;-147.04;70.87
39075;BME280;24826;52.070;20.970;2022-11-20T07:29:56;61722.78;;;-147.04;70.24
39075;BME280;24826;52.070;20.970;2022-11-20T07:32:40;61766.53;;;-147.04;69.73
39075;BME280;24826;52.070;20.970;2022-11-20T07:35:25;61706.88;;;-147.04;70.30
39075;BME280;24826;52.070;20.970;2022-11-20T07:38:09;61742.66;;;-147.04;71.30
39075;BME280;24826;52.070;20.970;2022-11-20T07:40:57;61736.72;;;-147.04;71.59
39075;BME280;24826;52.070;20.970;2022-11-20T07:43:41;61736.72;;;-147.04;72.05
39075;BME280;24826;52.070;20.970;2022-11-20T07:46:26;61718.81;;;-147.04;71.59
39075;BME280;24826;52.070;20.970;2022-11-20T07:49:10;61754.59;;;-147.04;71.67
39075;BME280;24826;52.070;20.970;2022-11-20T07:51:54;61730.75;;;-147.04;72.69
39075;BME280;24826;52.070;20.970;2022-11-20T07:54:39;61742.66;;;-147.04;73.18
39075;BME280;24826;52.070;20.970;2022-11-20T07:57:23;61748.63;;;-147.04;72.99
39075;BME280;24826;52.070;20.970;2022-11-20T08:00:09;61740.69;;;-147.04;73.37
39075;BME280;24826;52.070;20.970;2022-11-20T08:02:54;61814.25;;;-147.04;73.62
39075;BME280;24826;52.070;20.970;2022-11-20T08:05:38;61708.88;;;-147.04;73.88
39075;BME280;24826;52.070;20.970;2022-11-20T08:08:22;61742.66;;;-147.04;73.82
39075;BME280;24826;52.070;20.970;2022-11-20T08:11:07;61744.66;;;-147.04;73.18
39075;BME280;24826;52.070;20.970;2022-11-20T08:14:12;61714.84;;;-147.04;73.39
39075;BME280;24826;52.070;20.970;2022-11-20T08:16:55;61700.91;;;-147.04;72.90
39075;BME280;24826;52.070;20.970;2022-11-20T08:19:40;61700.91;;;-147.04;73.03
39075;BME280;24826;52.070;20.970;2022-11-20T08:22:24;61687.00;;;-147.04;72.01
39075;BME280;24826;52.070;20.970;2022-11-20T08:25:09;61702.91;;;-147.04;71.87
39075;BME280;24826;52.070;20.970;2022-11-20T08:27:53;61651.19;;;-147.04;72.56
39075;BME280;24826;52.070;20.970;2022-11-20T08:30:38;61669.09;;;-147.04;72.28
39075;BME280;24826;52.070;20.970;2022-11-20T08:33:22;61679.03;;;-147.04;72.14
39075;BME280;24826;52.070;20.970;2022-11-20T08:36:07;61714.84;;;-147.04;71.44
39075;BME280;24826;52.070;20.970;2022-11-20T08:38:55;61641.25;;;-147.04;71.64
39075;BME280;24826;52.070;20.970;2022-11-20T08:41:39;61651.19;;;-147.04;71.41
39075;BME280;24826;52.070;20.970;2022-11-20T08:44:24;61677.03;;;-147.04;71.00
39075;BME280;24826;52.070;20.970;2022-11-20T08:47:08;61685.00;;;-147.04;71.42
39075;BME280;24826;52.070;20.970;2022-11-20T08:49:52;61677.03;;;-147.04;71.06
39075;BME280;24826;52.070;20.970;2022-11-20T08:52:37;61627.34;;;-147.04;71.00
39075;BME280;24826;52.070;20.970;2022-11-20T08:55:21;61653.19;;;-147.04;70.75
39075;BME280;24826;52.070;20.970;2022-11-20T08:58:06;61627.34;;;-147.04;70.71
39075;BME280;24826;52.070;20.970;2022-11-20T09:00:50;61651.19;;;-147.04;70.33
39075;BME280;24826;52.070;20.970;2022-11-20T09:03:35;61591.53;;;-147.04;70.07
39075;BME280;24826;52.070;20.970;2022-11-20T09:06:19;61673.06;;;-147.04;70.19
39075;BME280;24826;52.070;20.970;2022-11-20T09:09:04;61655.16;;;-147.04;70.10
39075;BME280;24826;52.070;20.970;2022-11-20T09:11:49;61601.47;;;-147.04;69.82
39075;BME280;24826;52.070;20.970;2022-11-20T09:14:34;61623.34;;;-147.04;69.24
39075;BME280;24826;52.070;20.970;2022-11-20T09:17:18;61645.22;;;-147.04;69.57
39075;BME280;24826;52.070;20.970;2022-11-20T09:20:03;61589.56;;;-147.04;69.04
39075;BME280;24826;52.070;20.970;2022-11-20T09:22:48;61623.34;;;-147.04;68.73
39075;BME280;24826;52.070;20.970;2022-11-20T09:25:32;61607.44;;;-147.04;68.62
39075;BME280;24826;52.070;20.970;2022-11-20T09:28:16;61621.38;;;-147.04;69.19
39075;BME280;24826;52.070;20.970;2022-11-20T09:31:06;61539.84;;;-147.04;69.13
39075;BME280;24826;52.070;20.970;2022-11-20T09:33:51;61583.59;;;-147.04;68.86
39075;BME280;24826;52.070;20.970;2022-11-20T09:36:35;61575.63;;;-147.04;68.49
39075;BME280;24826;52.070;20.970;2022-11-20T09:39:20;61595.53;;;-147.04;68.62
39075;BME280;24826;52.070;20.970;2022-11-20T09:48:33;61573.66;;;-147.04;69.66
39075;BME280;24826;52.070;20.970;2022-11-20T09:51:57;61601.47;;;-147.04;69.83
39075;BME280;24826;52.070;20.970;2022-11-20T09:54:43;61595.53;;;-147.04;70.42
39075;BME280;24826;52.070;20.970;2022-11-20T09:57:47;61615.41;;;-147.04;70.37
39075;BME280;24826;52.070;20.970;2022-11-20T10:00:36;61571.66;;;-147.04;70.74
39075;BME280;24826;52.070;20.970;2022-11-20T10:03:36;61603.47;;;-147.04;70.03
39075;BME280;24826;52.070;20.970;2022-11-20T10:09:40;61607.44;;;-147.04;69.26
39075;BME280;24826;52.070;20.970;2022-11-20T10:13:13;61595.53;;;-147.04;69.14
39075;BME280;24826;52.070;20.970;2022-11-20T10:16:10;61591.53;;;-147.04;69.39
39075;BME280;24826;52.070;20.970;2022-11-20T10:22:13;61599.50;;;-147.04;68.65
39075;BME280;24826;52.070;20.970;2022-11-20T10:25:16;61601.47;;;-147.04;68.24
39075;BME280;24826;52.070;20.970;2022-11-20T10:28:23;61579.59;;;-147.04;68.29
39075;BME280;24826;52.070;20.970;2022-11-20T10:31:24;61595.53;;;-147.04;68.20
39075;BME280;24826;52.070;20.970;2022-11-20T10:34:25;61605.47;;;-147.04;69.05
39075;BME280;24826;52.070;20.970;2022-11-20T10:37:17;61557.75;;;-147.04;68.44
39075;BME280;24826;52.070;20.970;2022-11-20T10:40:19;61567.69;;;-147.04;69.33
39075;BME280;24826;52.070;20.970;2022-11-20T10:43:26;61571.66;;;-147.04;68.67
39075;BME280;24826;52.070;20.970;2022-11-20T10:46:17;61539.84;;;-147.04;68.83
39075;BME280;24826;52.070;20.970;2022-11-20T10:49:06;61545.81;;;-147.04;69.01
39075;BME280;24826;52.070;20.970;2022-11-20T10:52:06;61571.66;;;-147.04;68.65
39075;BME280;24826;52.070;20.970;2022-11-20T10:54:57;61541.81;;;-147.04;67.68
39075;BME280;24826;52.070;20.970;2022-11-20T10:57:58;61537.84;;;-147.04;67.20
39075;BME280;24826;52.070;20.970;2022-11-20T11:00:45;61498.09;;;-147.04;66.82
39075;BME280;24826;52.070;20.970;2022-11-20T11:03:31;61541.81;;;-147.04;66.95
39075;BME280;24826;52.070;20.970;2022-11-20T11:09:14;61510.00;;;-147.04;67.07
39075;BME280;24826;52.070;20.970;2022-11-20T11:12:00;61543.81;;;-147.04;67.62
39075;BME280;24826;52.070;20.970;2022-11-20T11:14:47;61519.94;;;-147.04;67.38
39075;BME280;24826;52.070;20.970;2022-11-20T11:17:33;61551.78;;;-147.04;67.54
39075;BME280;24826;52.070;20.970;2022-11-20T11:20:23;61535.88;;;-147.04;67.46
39075;BME280;24826;52.070;20.970;2022-11-20T11:23:43;61535.88;;;-147.04;68.24
39075;BME280;24826;52.070;20.970;2022-11-20T11:26:27;61535.88;;;-147.04;67.89
39075;BME280;24826;52.070;20.970;2022-11-20T11:29:17;61539.84;;;-147.04;67.97
39075;BME280;24826;52.070;20.970;2022-11-20T11:32:27;61496.09;;;-147.04;67.90
39075;BME280;24826;52.070;20.970;2022-11-20T11:35:24;61535.88;;;-147.04;67.58
39075;BME280;24826;52.070;20.970;2022-11-20T11:38:43;61579.59;;;-147.04;68.09
39075;BME280;24826;52.070;20.970;2022-11-20T11:41:31;61543.81;;;-147.04;68.09
39075;BME280;24826;52.070;20.970;2022-11-20T11:44:20;61506.03;;;-147.04;68.39
39075;BME280;24826;52.070;20.970;2022-11-20T11:47:32;61537.84;;;-147.04;68.91
39075;BME280;24826;52.070;20.970;2022-11-20T11:50:27;61529.91;;;-147.04;68.89
39075;BME280;24826;52.070;20.970;2022-11-20T11:53:19;61545.81;;;-147.04;68.78
39075;BME280;24826;52.070;20.970;2022-11-20T11:56:08;61527.91;;;-147.04;68.82
39075;BME280;24826;52.070;20.970;2022-11-20T11:58:56;61555.75;;;-147.04;68.57
39075;BME280;24826;52.070;20.970;2022-11-20T12:01:51;61547.78;;;-147.04;68.74
39075;BME280;24826;52.070;20.970;2022-11-20T12:04:46;61595.53;;;-147.04;69.22
39075;BME280;24826;52.070;20.970;2022-11-20T12:07:47;61523.94;;;-147.04;68.95
39075;BME280;24826;52.070;20.970;2022-11-20T12:10:47;61541.81;;;-147.04;69.12
39075;BME280;24826;52.070;20.970;2022-11-20T12:13:40;61537.84;;;-147.04;68.59
39075;BME280;24826;52.070;20.970;2022-11-20T12:16:26;61531.88;;;-147.04;68.38
39075;BME280;24826;52.070;20.970;2022-11-20T12:19:12;61531.88;;;-147.04;68.50
39075;BME280;24826;52.070;20.970;2022-11-20T12:25:11;61559.72;;;-147.04;68.98
39075;BME280;24826;52.070;20.970;2022-11-20T12:43:26;61539.84;;;-147.04;70.24
39075;BME280;24826;52.070;20.970;2022-11-20T12:49:38;61537.84;;;-147.04;69.19
39075;BME280;24826;52.070;20.970;2022-11-20T12:56:07;61523.94;;;-147.04;68.46
39075;BME280;24826;52.070;20.970;2022-11-20T13:02:57;61523.94;;;-147.04;68.45
39075;BME280;24826;52.070;20.970;2022-11-20T13:05:46;61519.94;;;-147.04;68.80
39075;BME280;24826;52.070;20.970;2022-11-20T13:08:55;61510.00;;;-147.04;68.65
39075;BME280;24826;52.070;20.970;2022-11-20T13:14:48;61533.88;;;-147.04;68.53
39075;BME280;24826;52.070;20.970;2022-11-20T13:17:52;61512.00;;;-147.04;69.06
39075;BME280;24826;52.070;20.970;2022-11-20T13:20:45;61502.06;;;-147.04;68.67
39075;BME280;24826;52.070;20.970;2022-11-20T13:23:30;61545.81;;;-147.04;68.83
39075;BME280;24826;52.070;20.970;2022-11-20T13:26:18;61454.34;;;-147.04;69.27
39075;BME280;24826;52.070;20.970;2022-11-20T13:29:16;61492.13;;;-147.04;68.96
39075;BME280;24826;52.070;20.970;2022-11-20T13:32:15;61496.09;;;-147.04;69.27
39075;BME280;24826;52.070;20.970;2022-11-20T13:35:03;61504.03;;;-147.04;69.56
39075;BME280;24826;52.070;20.970;2022-11-20T13:38:03;61468.25;;;-147.04;70.04
39075;BME280;24826;52.070;20.970;2022-11-20T13:40:57;61504.03;;;-147.04;70.08
39075;BME280;24826;52.070;20.970;2022-11-20T13:43:42;61496.09;;;-147.04;70.04
39075;BME280;24826;52.070;20.970;2022-11-20T13:46:56;61484.16;;;-147.04;70.17
39075;BME280;24826;52.070;20.970;2022-11-20T13:49:41;61500.06;;;-147.04;70.22
39075;BME280;24826;52.070;20.970;2022-11-20T13:55:47;61480.19;;;-147.04;71.00
39075;BME280;24826;52.070;20.970;2022-11-20T14:01:37;61500.06;;;-147.04;70.58
39075;BME280;24826;52.070;20.970;2022-11-20T14:04:27;61478.19;;;-147.04;72.48
39075;BME280;24826;52.070;20.970;2022-11-20T14:07:13;61512.00;;;-147.04;72.18
39075;BME280;24826;52.070;20.970;2022-11-20T14:09:58;61492.13;;;-147.04;71.79
39075;BME280;24826;52.070;20.970;2022-11-20T14:12:42;61500.06;;;-147.04;71.65
39075;BME280;24826;52.070;20.970;2022-11-20T14:15:28;61480.19;;;-147.04;71.54
39075;BME280;24826;52.070;20.970;2022-11-20T14:18:18;61472.22;;;-147.04;71.35
39075;BME280;24826;52.070;20.970;2022-11-20T14:21:03;61460.31;;;-147.04;70.15
39075;BME280;24826;52.070;20.970;2022-11-20T14:23:52;61494.09;;;-147.04;71.19
39075;BME280;24826;52.070;20.970;2022-11-20T14:26:41;61482.19;;;-147.04;70.92
39075;BME280;24826;52.070;20.970;2022-11-20T14:29:28;61517.97;;;-147.04;71.23
39075;BME280;24826;52.070;20.970;2022-11-20T14:32:17;61506.03;;;-147.04;71.76
39075;BME280;24826;52.070;20.970;2022-11-20T14:35:17;61506.03;;;-147.04;71.21
39075;BME280;24826;52.070;20.970;2022-11-20T14:38:03;61510.00;;;-147.04;72.48
39075;BME280;24826;52.070;20.970;2022-11-20T14:40:48;61494.09;;;-147.04;73.13
39075;BME280;24826;52.070;20.970;2022-11-20T14:43:32;61515.97;;;-147.04;74.20
39075;BME280;24826;52.070;20.970;2022-11-20T14:46:20;61490.13;;;-147.04;74.05
39075;BME280;24826;52.070;20.970;2022-11-20T14:49:05;61508.03;;;-147.04;75.13
39075;BME280;24826;52.070;20.970;2022-11-20T14:52:09;61496.09;;;-147.04;75.52
39075;BME280;24826;52.070;20.970;2022-11-20T14:54:56;61502.06;;;-147.04;75.65
39075;BME280;24826;52.070;20.970;2022-11-20T14:57:43;61508.03;;;-147.04;76.33
39075;BME280;24826;52.070;20.970;2022-11-20T15:00:29;61484.16;;;-147.04;75.69
39075;BME280;24826;52.070;20.970;2022-11-20T15:03:15;61527.91;;;-147.04;75.67
39075;BME280;24826;52.070;20.970;2022-11-20T15:06:00;61512.00;;;-147.04;75.41
39075;BME280;24826;52.070;20.970;2022-11-20T15:08:51;61515.97;;;-147.04;76.41
39075;BME280;24826;52.070;20.970;2022-11-20T15:11:36;61523.94;;;-147.04;77.16
39075;BME280;24826;52.070;20.970;2022-11-20T15:14:21;61508.03;;;-147.04;77.29
39075;BME280;24826;52.070;20.970;2022-11-20T15:17:07;61581.59;;;-147.04;78.00